sensor_id;sensor_type;location;lat;lon;timestamp;P1;durP1;ratioP1;P2;durP2;ratioP2
32216;SDS011;67098;51.140;4.088;2023-07-29T00:01:40;3.25;;;1.70;;
32216;SDS011;67098;51.140;4.088;2023-07-29T00:04:06;4.10;;;1.75;;
32216;SDS011;67098;51.140;4.088;2023-07-29T00:06:34;4.60;;;1.50;;
32216;SDS011;67098;51.140;4.088;2023-07-29T00:09:00;3.42;;;2.05;;
32216;SDS011;67098;51.140;4.088;2023-07-29T00:11:26;4.57;;;1.67;;
32216;SDS011;67098;51.140;4.088;2023-07-29T00:13:52;2.80;;;1.48;;
32216;SDS011;67098;51.140;4.088;2023-07-29T00:16:18;4.32;;;1.70;;
32216;SDS011;67098;51.140;4.088;2023-07-29T00:18:47;4.75;;;1.67;;
32216;SDS011;67098;51.140;4.088;2023-07-29T00:21:13;5.15;;;1.50;;
32216;SDS011;67098;51.140;4.088;2023-07-29T00:23:39;8.38;;;1.80;;
32216;SDS011;67098;51.140;4.088;2023-07-29T00:26:04;3.53;;;1.63;;
32216;SDS011;67098;51.140;4.088;2023-07-29T00:28:30;4.75;;;1.70;;
32216;SDS011;67098;51.140;4.088;2023-07-29T00:30:56;3.78;;;1.90;;
32216;SDS011;67098;51.140;4.088;2023-07-29T00:33:22;2.70;;;1.90;;
32216;SDS011;67098;51.140;4.088;2023-07-29T00:35:47;5.20;;;2.13;;
32216;SDS011;67098;51.140;4.088;2023-07-29T00:38:13;3.67;;;1.65;;
32216;SDS011;67098;51.140;4.088;2023-07-29T00:40:39;2.92;;;1.60;;
32216;SDS011;67098;51.140;4.088;2023-07-29T00:43:05;3.85;;;1.85;;
32216;SDS011;67098;51.140;4.088;2023-07-29T00:45:31;3.95;;;2.20;;
32216;SDS011;67098;51.140;4.088;2023-07-29T00:47:58;2.78;;;1.80;;
32216;SDS011;67098;51.140;4.088;2023-07-29T00:50:25;5.07;;;1.73;;
32216;SDS011;67098;51.140;4.088;2023-07-29T00:52:53;2.47;;;1.60;;
32216;SDS011;67098;51.140;4.088;2023-07-29T00:55:19;4.72;;;1.52;;
32216;SDS011;67098;51.140;4.088;2023-07-29T00:57:45;2.42;;;1.65;;
32216;SDS011;67098;51.140;4.088;2023-07-29T01:00:13;4.45;;;1.70;;
32216;SDS011;67098;51.140;4.088;2023-07-29T01:02:41;5.95;;;1.80;;
32216;SDS011;67098;51.140;4.088;2023-07-29T01:05:07;3.60;;;1.90;;
32216;SDS011;67098;51.140;4.088;2023-07-29T01:13:23;1.95;;;1.55;;
32216;SDS011;67098;51.140;4.088;2023-07-29T01:16:14;3.45;;;2.10;;
32216;SDS011;67098;51.140;4.088;2023-07-29T01:18:44;6.22;;;1.80;;
32216;SDS011;67098;51.140;4.088;2023-07-29T01:21:13;9.50;;;1.98;;
32216;SDS011;67098;51.140;4.088;2023-07-29T01:23:40;4.85;;;2.30;;
32216;SDS011;67098;51.140;4.088;2023-07-29T01:26:06;4.22;;;1.80;;
32216;SDS011;67098;51.140;4.088;2023-07-29T01:28:32;4.88;;;1.80;;
32216;SDS011;67098;51.140;4.088;2023-07-29T01:31:01;5.13;;;1.83;;
32216;SDS011;67098;51.140;4.088;2023-07-29T01:37:00;4.72;;;1.83;;
32216;SDS011;67098;51.140;4.088;2023-07-29T01:39:28;4.45;;;1.92;;
32216;SDS011;67098;51.140;4.088;2023-07-29T01:41:57;4.50;;;1.70;;
32216;SDS011;67098;51.140;4.088;2023-07-29T01:44:23;4.72;;;1.90;;
32216;SDS011;67098;51.140;4.088;2023-07-29T01:46:49;4.57;;;1.98;;
32216;SDS011;67098;51.140;4.088;2023-07-29T01:49:15;3.55;;;1.98;;
32216;SDS011;67098;51.140;4.088;2023-07-29T01:51:41;4.75;;;2.45;;
32216;SDS011;67098;51.140;4.088;2023-07-29T01:54:06;3.17;;;2.20;;
32216;SDS011;67098;51.140;4.088;2023-07-29T01:56:32;4.22;;;2.20;;
32216;SDS011;67098;51.140;4.088;2023-07-29T01:58:58;5.00;;;2.25;;
32216;SDS011;67098;51.140;4.088;2023-07-29T02:01:23;6.18;;;2.70;;
32216;SDS011;67098;51.140;4.088;2023-07-29T02:03:49;4.05;;;2.17;;
32216;SDS011;67098;51.140;4.088;2023-07-29T02:06:21;3.53;;;1.90;;
32216;SDS011;67098;51.140;4.088;2023-07-29T02:08:47;3.03;;;2.00;;
32216;SDS011;67098;51.140;4.088;2023-07-29T02:11:13;4.30;;;2.15;;
32216;SDS011;67098;51.140;4.088;2023-07-29T02:13:39;2.42;;;1.88;;
32216;SDS011;67098;51.140;4.088;2023-07-29T02:16:04;5.07;;;2.25;;
32216;SDS011;67098;51.140;4.088;2023-07-29T02:18:30;2.42;;;1.80;;
32216;SDS011;67098;51.140;4.088;2023-07-29T02:20:56;7.25;;;2.35;;
32216;SDS011;67098;51.140;4.088;2023-07-29T02:23:21;4.18;;;2.40;;
32216;SDS011;67098;51.140;4.088;2023-07-29T02:25:48;4.95;;;2.05;;
32216;SDS011;67098;51.140;4.088;2023-07-29T02:28:15;3.33;;;1.73;;
32216;SDS011;67098;51.140;4.088;2023-07-29T02:30:41;8.30;;;2.13;;
32216;SDS011;67098;51.140;4.088;2023-07-29T02:33:09;4.60;;;2.60;;
32216;SDS011;67098;51.140;4.088;2023-07-29T02:35:35;3.03;;;2.47;;
32216;SDS011;67098;51.140;4.088;2023-07-29T02:38:01;7.88;;;2.20;;
32216;SDS011;67098;51.140;4.088;2023-07-29T02:40:26;3.70;;;1.95;;
32216;SDS011;67098;51.140;4.088;2023-07-29T02:42:54;3.63;;;2.17;;
32216;SDS011;67098;51.140;4.088;2023-07-29T02:45:20;3.42;;;2.17;;
32216;SDS011;67098;51.140;4.088;2023-07-29T02:47:45;4.97;;;2.20;;
32216;SDS011;67098;51.140;4.088;2023-07-29T02:50:11;5.40;;;2.20;;
32216;SDS011;67098;51.140;4.088;2023-07-29T02:52:38;3.35;;;2.45;;
32216;SDS011;67098;51.140;4.088;2023-07-29T02:55:04;8.30;;;2.45;;
32216;SDS011;67098;51.140;4.088;2023-07-29T02:57:31;4.28;;;2.35;;
32216;SDS011;67098;51.140;4.088;2023-07-29T02:59:56;3.80;;;2.35;;
32216;SDS011;67098;51.140;4.088;2023-07-29T03:02:22;5.43;;;2.67;;
32216;SDS011;67098;51.140;4.088;2023-07-29T03:04:48;5.13;;;2.47;;
32216;SDS011;67098;51.140;4.088;2023-07-29T03:07:14;6.20;;;2.45;;
32216;SDS011;67098;51.140;4.088;2023-07-29T03:09:39;4.03;;;2.40;;
32216;SDS011;67098;51.140;4.088;2023-07-29T03:12:07;7.30;;;2.67;;
32216;SDS011;67098;51.140;4.088;2023-07-29T03:14:33;5.15;;;2.47;;
32216;SDS011;67098;51.140;4.088;2023-07-29T03:17:01;4.03;;;2.42;;
32216;SDS011;67098;51.140;4.088;2023-07-29T03:19:29;3.50;;;2.20;;
32216;SDS011;67098;51.140;4.088;2023-07-29T03:21:55;4.70;;;2.63;;
32216;SDS011;67098;51.140;4.088;2023-07-29T03:24:21;4.95;;;2.55;;
32216;SDS011;67098;51.140;4.088;2023-07-29T03:26:46;4.47;;;2.53;;
32216;SDS011;67098;51.140;4.088;2023-07-29T03:29:12;6.78;;;2.35;;
32216;SDS011;67098;51.140;4.088;2023-07-29T03:31:38;6.95;;;2.38;;
32216;SDS011;67098;51.140;4.088;2023-07-29T03:34:03;4.47;;;2.63;;
32216;SDS011;67098;51.140;4.088;2023-07-29T03:36:29;5.35;;;2.35;;
32216;SDS011;67098;51.140;4.088;2023-07-29T03:38:55;3.85;;;2.40;;
32216;SDS011;67098;51.140;4.088;2023-07-29T03:41:21;4.53;;;2.33;;
32216;SDS011;67098;51.140;4.088;2023-07-29T03:43:47;4.80;;;2.63;;
32216;SDS011;67098;51.140;4.088;2023-07-29T03:46:13;3.97;;;2.40;;
32216;SDS011;67098;51.140;4.088;2023-07-29T03:48:42;4.75;;;2.10;;
32216;SDS011;67098;51.140;4.088;2023-07-29T03:51:08;5.15;;;2.60;;
32216;SDS011;67098;51.140;4.088;2023-07-29T03:53:34;2.97;;;2.28;;
32216;SDS011;67098;51.140;4.088;2023-07-29T03:56:00;4.18;;;2.25;;
32216;SDS011;67098;51.140;4.088;2023-07-29T03:58:26;3.05;;;2.15;;
32216;SDS011;67098;51.140;4.088;2023-07-29T04:00:52;3.00;;;2.20;;
32216;SDS011;67098;51.140;4.088;2023-07-29T04:03:17;4.28;;;2.55;;
32216;SDS011;67098;51.140;4.088;2023-07-29T04:05:43;6.25;;;2.70;;
32216;SDS011;67098;51.140;4.088;2023-07-29T04:08:09;4.05;;;2.38;;
32216;SDS011;67098;51.140;4.088;2023-07-29T04:10:35;5.05;;;2.45;;
32216;SDS011;67098;51.140;4.088;2023-07-29T04:13:01;4.53;;;2.40;;
32216;SDS011;67098;51.140;4.088;2023-07-29T04:15:27;6.95;;;2.80;;
32216;SDS011;67098;51.140;4.088;2023-07-29T04:17:52;4.15;;;2.40;;
32216;SDS011;67098;51.140;4.088;2023-07-29T04:20:18;3.67;;;2.70;;
32216;SDS011;67098;51.140;4.088;2023-07-29T04:22:44;6.07;;;2.60;;
32216;SDS011;67098;51.140;4.088;2023-07-29T04:25:09;4.35;;;2.83;;
32216;SDS011;67098;51.140;4.088;2023-07-29T04:27:35;6.07;;;2.40;;
32216;SDS011;67098;51.140;4.088;2023-07-29T04:30:01;3.50;;;2.20;;
32216;SDS011;67098;51.140;4.088;2023-07-29T04:32:27;4.93;;;2.40;;
32216;SDS011;67098;51.140;4.088;2023-07-29T04:34:52;3.28;;;2.05;;
32216;SDS011;67098;51.140;4.088;2023-07-29T04:37:18;5.70;;;1.98;;
32216;SDS011;67098;51.140;4.088;2023-07-29T04:39:44;2.75;;;2.17;;
32216;SDS011;67098;51.140;4.088;2023-07-29T04:42:10;3.92;;;2.28;;
32216;SDS011;67098;51.140;4.088;2023-07-29T04:44:35;3.33;;;2.30;;
32216;SDS011;67098;51.140;4.088;2023-07-29T04:47:01;4.43;;;2.38;;
32216;SDS011;67098;51.140;4.088;2023-07-29T04:49:27;3.55;;;2.10;;
32216;SDS011;67098;51.140;4.088;2023-07-29T04:51:53;6.55;;;2.67;;
32216;SDS011;67098;51.140;4.088;2023-07-29T04:54:18;5.00;;;2.00;;
32216;SDS011;67098;51.140;4.088;2023-07-29T04:56:46;4.55;;;2.00;;
32216;SDS011;67098;51.140;4.088;2023-07-29T04:59:11;4.63;;;1.80;;
32216;SDS011;67098;51.140;4.088;2023-07-29T05:01:38;4.15;;;2.00;;
32216;SDS011;67098;51.140;4.088;2023-07-29T05:04:04;6.43;;;2.45;;
32216;SDS011;67098;51.140;4.088;2023-07-29T05:06:29;5.13;;;2.10;;
32216;SDS011;67098;51.140;4.088;2023-07-29T05:08:57;3.88;;;2.13;;
32216;SDS011;67098;51.140;4.088;2023-07-29T05:11:22;4.80;;;2.20;;
32216;SDS011;67098;51.140;4.088;2023-07-29T05:13:50;5.95;;;2.28;;
32216;SDS011;67098;51.140;4.088;2023-07-29T05:16:16;3.13;;;1.85;;
32216;SDS011;67098;51.140;4.088;2023-07-29T05:18:41;5.70;;;2.17;;
32216;SDS011;67098;51.140;4.088;2023-07-29T05:21:07;3.22;;;2.10;;
32216;SDS011;67098;51.140;4.088;2023-07-29T05:23:33;3.92;;;2.13;;
32216;SDS011;67098;51.140;4.088;2023-07-29T05:25:59;3.38;;;2.22;;
32216;SDS011;67098;51.140;4.088;2023-07-29T05:28:25;4.95;;;1.67;;
32216;SDS011;67098;51.140;4.088;2023-07-29T05:30:50;5.47;;;2.65;;
32216;SDS011;67098;51.140;4.088;2023-07-29T05:33:16;6.15;;;1.90;;
32216;SDS011;67098;51.140;4.088;2023-07-29T05:35:42;4.60;;;2.20;;
32216;SDS011;67098;51.140;4.088;2023-07-29T05:38:07;4.88;;;2.33;;
32216;SDS011;67098;51.140;4.088;2023-07-29T05:40:34;3.22;;;1.83;;
32216;SDS011;67098;51.140;4.088;2023-07-29T05:42:59;5.90;;;1.70;;
32216;SDS011;67098;51.140;4.088;2023-07-29T05:45:25;4.05;;;1.73;;
32216;SDS011;67098;51.140;4.088;2023-07-29T05:47:51;7.95;;;2.58;;
32216;SDS011;67098;51.140;4.088;2023-07-29T05:50:17;4.05;;;1.50;;
32216;SDS011;67098;51.140;4.088;2023-07-29T05:52:42;3.97;;;2.03;;
32216;SDS011;67098;51.140;4.088;2023-07-29T05:55:08;6.13;;;1.70;;
32216;SDS011;67098;51.140;4.088;2023-07-29T05:57:34;5.35;;;1.77;;
32216;SDS011;67098;51.140;4.088;2023-07-29T06:00:00;3.60;;;1.35;;
32216;SDS011;67098;51.140;4.088;2023-07-29T06:02:25;4.43;;;1.80;;
32216;SDS011;67098;51.140;4.088;2023-07-29T06:04:51;3.25;;;1.70;;
32216;SDS011;67098;51.140;4.088;2023-07-29T06:07:17;3.15;;;1.52;;
32216;SDS011;67098;51.140;4.088;2023-07-29T06:09:43;5.32;;;1.70;;
32216;SDS011;67098;51.140;4.088;2023-07-29T06:12:08;5.97;;;1.60;;
32216;SDS011;67098;51.140;4.088;2023-07-29T06:14:34;5.75;;;1.80;;
32216;SDS011;67098;51.140;4.088;2023-07-29T06:17:00;5.65;;;1.50;;
32216;SDS011;67098;51.140;4.088;2023-07-29T06:19:26;2.65;;;1.20;;
32216;SDS011;67098;51.140;4.088;2023-07-29T06:21:51;3.03;;;1.52;;
32216;SDS011;67098;51.140;4.088;2023-07-29T06:24:20;4.03;;;1.70;;
32216;SDS011;67098;51.140;4.088;2023-07-29T06:26:46;3.95;;;1.60;;
32216;SDS011;67098;51.140;4.088;2023-07-29T06:29:12;3.00;;;1.85;;
32216;SDS011;67098;51.140;4.088;2023-07-29T06:31:37;3.55;;;1.52;;
32216;SDS011;67098;51.140;4.088;2023-07-29T06:34:03;4.35;;;1.70;;
32216;SDS011;67098;51.140;4.088;2023-07-29T06:36:29;4.53;;;1.55;;
32216;SDS011;67098;51.140;4.088;2023-07-29T06:38:55;2.90;;;1.60;;
32216;SDS011;67098;51.140;4.088;2023-07-29T06:41:20;2.83;;;1.38;;
32216;SDS011;67098;51.140;4.088;2023-07-29T06:43:46;2.20;;;1.67;;
32216;SDS011;67098;51.140;4.088;2023-07-29T06:46:12;3.35;;;1.58;;
32216;SDS011;67098;51.140;4.088;2023-07-29T06:48:38;4.40;;;1.52;;
32216;SDS011;67098;51.140;4.088;2023-07-29T06:51:03;1.52;;;1.30;;
32216;SDS011;67098;51.140;4.088;2023-07-29T06:53:29;3.03;;;1.40;;
32216;SDS011;67098;51.140;4.088;2023-07-29T06:55:55;2.22;;;1.50;;
32216;SDS011;67098;51.140;4.088;2023-07-29T06:58:21;1.67;;;1.48;;
32216;SDS011;67098;51.140;4.088;2023-07-29T07:00:47;3.95;;;1.20;;
32216;SDS011;67098;51.140;4.088;2023-07-29T07:03:12;2.88;;;1.55;;
32216;SDS011;67098;51.140;4.088;2023-07-29T07:05:39;2.67;;;1.25;;
32216;SDS011;67098;51.140;4.088;2023-07-29T07:08:05;3.28;;;1.55;;
32216;SDS011;67098;51.140;4.088;2023-07-29T07:10:30;2.58;;;1.40;;
32216;SDS011;67098;51.140;4.088;2023-07-29T07:12:58;1.98;;;1.27;;
32216;SDS011;67098;51.140;4.088;2023-07-29T07:15:25;3.28;;;1.50;;
32216;SDS011;67098;51.140;4.088;2023-07-29T07:17:51;3.45;;;1.45;;
32216;SDS011;67098;51.140;4.088;2023-07-29T07:20:17;4.25;;;1.42;;
32216;SDS011;67098;51.140;4.088;2023-07-29T07:22:42;3.88;;;1.60;;
32216;SDS011;67098;51.140;4.088;2023-07-29T07:25:08;7.22;;;1.48;;
32216;SDS011;67098;51.140;4.088;2023-07-29T07:27:34;4.60;;;1.50;;
32216;SDS011;67098;51.140;4.088;2023-07-29T07:30:02;2.13;;;1.35;;
32216;SDS011;67098;51.140;4.088;2023-07-29T07:32:28;6.07;;;1.27;;
32216;SDS011;67098;51.140;4.088;2023-07-29T07:34:53;2.80;;;1.50;;
32216;SDS011;67098;51.140;4.088;2023-07-29T07:37:19;3.30;;;1.40;;
32216;SDS011;67098;51.140;4.088;2023-07-29T07:39:45;3.80;;;1.30;;
32216;SDS011;67098;51.140;4.088;2023-07-29T07:42:10;3.53;;;1.52;;
32216;SDS011;67098;51.140;4.088;2023-07-29T07:44:36;3.08;;;1.60;;
32216;SDS011;67098;51.140;4.088;2023-07-29T07:47:02;4.97;;;1.50;;
32216;SDS011;67098;51.140;4.088;2023-07-29T07:49:28;1.95;;;1.35;;
32216;SDS011;67098;51.140;4.088;2023-07-29T07:51:54;3.65;;;1.20;;
32216;SDS011;67098;51.140;4.088;2023-07-29T07:54:20;2.50;;;1.40;;
32216;SDS011;67098;51.140;4.088;2023-07-29T07:56:45;3.95;;;1.17;;
32216;SDS011;67098;51.140;4.088;2023-07-29T07:59:11;2.28;;;1.48;;
32216;SDS011;67098;51.140;4.088;2023-07-29T08:01:39;3.70;;;1.20;;
32216;SDS011;67098;51.140;4.088;2023-07-29T08:04:05;4.57;;;1.20;;
32216;SDS011;67098;51.140;4.088;2023-07-29T08:06:31;3.17;;;1.50;;
32216;SDS011;67098;51.140;4.088;2023-07-29T08:08:57;2.10;;;1.10;;
32216;SDS011;67098;51.140;4.088;2023-07-29T08:11:23;3.25;;;1.35;;
32216;SDS011;67098;51.140;4.088;2023-07-29T08:13:49;2.97;;;1.20;;
32216;SDS011;67098;51.140;4.088;2023-07-29T08:16:15;4.53;;;1.20;;
32216;SDS011;67098;51.140;4.088;2023-07-29T08:18:40;3.85;;;1.65;;
32216;SDS011;67098;51.140;4.088;2023-07-29T08:21:06;4.38;;;0.95;;
32216;SDS011;67098;51.140;4.088;2023-07-29T08:23:33;2.13;;;1.10;;
32216;SDS011;67098;51.140;4.088;2023-07-29T08:26:01;4.70;;;1.88;;
32216;SDS011;67098;51.140;4.088;2023-07-29T08:28:34;5.45;;;1.27;;
32216;SDS011;67098;51.140;4.088;2023-07-29T08:31:01;2.65;;;1.50;;
32216;SDS011;67098;51.140;4.088;2023-07-29T08:33:27;3.20;;;1.45;;
32216;SDS011;67098;51.140;4.088;2023-07-29T08:35:53;4.22;;;1.50;;
32216;SDS011;67098;51.140;4.088;2023-07-29T08:38:19;2.28;;;1.20;;
32216;SDS011;67098;51.140;4.088;2023-07-29T08:41:32;3.63;;;0.98;;
32216;SDS011;67098;51.140;4.088;2023-07-29T08:43:34;5.05;;;1.50;;
32216;SDS011;67098;51.140;4.088;2023-07-29T08:46:03;4.07;;;1.40;;
32216;SDS011;67098;51.140;4.088;2023-07-29T08:48:32;2.70;;;1.35;;
32216;SDS011;67098;51.140;4.088;2023-07-29T08:51:08;3.22;;;1.45;;
32216;SDS011;67098;51.140;4.088;2023-07-29T08:53:35;2.15;;;1.33;;
32216;SDS011;67098;51.140;4.088;2023-07-29T08:56:01;6.03;;;1.42;;
32216;SDS011;67098;51.140;4.088;2023-07-29T08:58:27;4.05;;;1.60;;
32216;SDS011;67098;51.140;4.088;2023-07-29T09:00:54;7.07;;;1.63;;
32216;SDS011;67098;51.140;4.088;2023-07-29T09:03:20;4.20;;;1.45;;
32216;SDS011;67098;51.140;4.088;2023-07-29T09:05:47;3.67;;;1.50;;
32216;SDS011;67098;51.140;4.088;2023-07-29T09:08:13;3.10;;;1.40;;
32216;SDS011;67098;51.140;4.088;2023-07-29T09:10:39;1.48;;;1.27;;
32216;SDS011;67098;51.140;4.088;2023-07-29T09:13:06;3.42;;;1.70;;
32216;SDS011;67098;51.140;4.088;2023-07-29T09:15:33;3.95;;;1.70;;
32216;SDS011;67098;51.140;4.088;2023-07-29T09:18:08;3.47;;;1.70;;
32216;SDS011;67098;51.140;4.088;2023-07-29T09:20:35;3.55;;;1.60;;
32216;SDS011;67098;51.140;4.088;2023-07-29T09:23:01;4.00;;;1.42;;
32216;SDS011;67098;51.140;4.088;2023-07-29T09:25:27;4.10;;;2.00;;
32216;SDS011;67098;51.140;4.088;2023-07-29T09:28:00;3.10;;;1.67;;
32216;SDS011;67098;51.140;4.088;2023-07-29T09:30:27;3.30;;;1.63;;
32216;SDS011;67098;51.140;4.088;2023-07-29T09:32:56;2.70;;;1.50;;
32216;SDS011;67098;51.140;4.088;2023-07-29T09:35:22;3.88;;;1.45;;
32216;SDS011;67098;51.140;4.088;2023-07-29T09:37:49;5.97;;;1.65;;
32216;SDS011;67098;51.140;4.088;2023-07-29T09:40:17;2.25;;;1.40;;
32216;SDS011;67098;51.140;4.088;2023-07-29T09:45:20;6.15;;;1.83;;
32216;SDS011;67098;51.140;4.088;2023-07-29T09:47:46;5.13;;;1.75;;
32216;SDS011;67098;51.140;4.088;2023-07-29T09:50:12;5.28;;;1.80;;
32216;SDS011;67098;51.140;4.088;2023-07-29T09:52:38;6.10;;;1.65;;
32216;SDS011;67098;51.140;4.088;2023-07-29T09:55:04;3.80;;;2.08;;
32216;SDS011;67098;51.140;4.088;2023-07-29T09:57:31;4.78;;;1.60;;
32216;SDS011;67098;51.140;4.088;2023-07-29T09:59:57;2.72;;;1.48;;
32216;SDS011;67098;51.140;4.088;2023-07-29T10:02:23;5.20;;;1.70;;
32216;SDS011;67098;51.140;4.088;2023-07-29T10:04:52;1.85;;;1.35;;
32216;SDS011;67098;51.140;4.088;2023-07-29T10:07:19;5.40;;;1.73;;
32216;SDS011;67098;51.140;4.088;2023-07-29T10:09:46;2.08;;;1.38;;
32216;SDS011;67098;51.140;4.088;2023-07-29T10:12:13;4.07;;;1.60;;
32216;SDS011;67098;51.140;4.088;2023-07-29T10:14:39;4.47;;;1.67;;
32216;SDS011;67098;51.140;4.088;2023-07-29T10:17:06;5.00;;;2.08;;
32216;SDS011;67098;51.140;4.088;2023-07-29T10:19:33;2.75;;;1.55;;
32216;SDS011;67098;51.140;4.088;2023-07-29T10:22:00;6.85;;;1.50;;
32216;SDS011;67098;51.140;4.088;2023-07-29T10:24:32;3.78;;;1.73;;
32216;SDS011;67098;51.140;4.088;2023-07-29T10:26:59;4.53;;;1.70;;
32216;SDS011;67098;51.140;4.088;2023-07-29T10:29:28;2.58;;;1.50;;
32216;SDS011;67098;51.140;4.088;2023-07-29T10:32:01;2.90;;;1.40;;
32216;SDS011;67098;51.140;4.088;2023-07-29T10:34:29;3.47;;;1.63;;
32216;SDS011;67098;51.140;4.088;2023-07-29T10:36:56;2.83;;;1.52;;
32216;SDS011;67098;51.140;4.088;2023-07-29T10:39:25;2.88;;;1.55;;
32216;SDS011;67098;51.140;4.088;2023-07-29T10:41:58;3.42;;;1.75;;
32216;SDS011;67098;51.140;4.088;2023-07-29T10:47:14;2.72;;;1.65;;
32216;SDS011;67098;51.140;4.088;2023-07-29T10:49:44;3.58;;;2.00;;
32216;SDS011;67098;51.140;4.088;2023-07-29T10:52:31;4.85;;;2.10;;
32216;SDS011;67098;51.140;4.088;2023-07-29T10:55:00;13.07;;;3.50;;
32216;SDS011;67098;51.140;4.088;2023-07-29T10:57:33;7.93;;;3.10;;
32216;SDS011;67098;51.140;4.088;2023-07-29T11:00:00;6.55;;;2.22;;
32216;SDS011;67098;51.140;4.088;2023-07-29T11:02:29;8.07;;;2.53;;
32216;SDS011;67098;51.140;4.088;2023-07-29T11:04:56;8.38;;;2.80;;
32216;SDS011;67098;51.140;4.088;2023-07-29T11:07:22;7.57;;;2.40;;
32216;SDS011;67098;51.140;4.088;2023-07-29T11:09:55;7.28;;;2.75;;
32216;SDS011;67098;51.140;4.088;2023-07-29T11:15:15;4.63;;;2.35;;
32216;SDS011;67098;51.140;4.088;2023-07-29T11:17:45;6.90;;;2.80;;
32216;SDS011;67098;51.140;4.088;2023-07-29T11:20:13;8.55;;;2.80;;
32216;SDS011;67098;51.140;4.088;2023-07-29T11:22:39;7.70;;;2.75;;
32216;SDS011;67098;51.140;4.088;2023-07-29T11:25:06;3.80;;;2.67;;
32216;SDS011;67098;51.140;4.088;2023-07-29T11:27:33;2.67;;;1.83;;
32216;SDS011;67098;51.140;4.088;2023-07-29T11:30:00;2.85;;;1.75;;
32216;SDS011;67098;51.140;4.088;2023-07-29T11:32:27;4.88;;;1.80;;
32216;SDS011;67098;51.140;4.088;2023-07-29T11:34:53;5.05;;;1.90;;
32216;SDS011;67098;51.140;4.088;2023-07-29T11:37:18;3.35;;;1.55;;
32216;SDS011;67098;51.140;4.088;2023-07-29T11:39:46;3.85;;;1.35;;
32216;SDS011;67098;51.140;4.088;2023-07-29T11:42:12;2.67;;;1.40;;
32216;SDS011;67098;51.140;4.088;2023-07-29T11:44:39;1.15;;;0.82;;
32216;SDS011;67098;51.140;4.088;2023-07-29T11:47:08;2.63;;;1.10;;
32216;SDS011;67098;51.140;4.088;2023-07-29T11:49:35;1.80;;;0.82;;
32216;SDS011;67098;51.140;4.088;2023-07-29T11:52:03;2.50;;;0.90;;
32216;SDS011;67098;51.140;4.088;2023-07-29T11:54:31;1.10;;;0.80;;
32216;SDS011;67098;51.140;4.088;2023-07-29T11:56:57;1.27;;;0.88;;
32216;SDS011;67098;51.140;4.088;2023-07-29T11:59:23;0.85;;;0.70;;
32216;SDS011;67098;51.140;4.088;2023-07-29T12:01:48;1.92;;;0.95;;
32216;SDS011;67098;51.140;4.088;2023-07-29T12:04:14;1.60;;;1.08;;
32216;SDS011;67098;51.140;4.088;2023-07-29T12:06:41;2.17;;;0.80;;
32216;SDS011;67098;51.140;4.088;2023-07-29T12:09:07;1.90;;;0.95;;
32216;SDS011;67098;51.140;4.088;2023-07-29T12:11:34;2.45;;;1.10;;
32216;SDS011;67098;51.140;4.088;2023-07-29T12:14:00;2.65;;;1.20;;
32216;SDS011;67098;51.140;4.088;2023-07-29T12:16:26;3.05;;;1.15;;
32216;SDS011;67098;51.140;4.088;2023-07-29T12:18:52;2.53;;;1.13;;
32216;SDS011;67098;51.140;4.088;2023-07-29T12:21:20;2.50;;;1.10;;
32216;SDS011;67098;51.140;4.088;2023-07-29T12:23:46;2.15;;;1.13;;
32216;SDS011;67098;51.140;4.088;2023-07-29T12:26:14;2.17;;;1.30;;
32216;SDS011;67098;51.140;4.088;2023-07-29T12:28:44;2.67;;;1.20;;
32216;SDS011;67098;51.140;4.088;2023-07-29T12:31:12;2.45;;;1.27;;
32216;SDS011;67098;51.140;4.088;2023-07-29T12:33:38;3.45;;;1.30;;
32216;SDS011;67098;51.140;4.088;2023-07-29T12:36:04;4.05;;;1.17;;
32216;SDS011;67098;51.140;4.088;2023-07-29T12:38:30;2.03;;;1.10;;
32216;SDS011;67098;51.140;4.088;2023-07-29T12:40:56;6.30;;;1.20;;
32216;SDS011;67098;51.140;4.088;2023-07-29T12:43:22;2.35;;;1.08;;
32216;SDS011;67098;51.140;4.088;2023-07-29T12:45:51;1.50;;;1.00;;
32216;SDS011;67098;51.140;4.088;2023-07-29T12:48:17;3.87;;;1.40;;
32216;SDS011;67098;51.140;4.088;2023-07-29T12:50:43;1.83;;;1.10;;
32216;SDS011;67098;51.140;4.088;2023-07-29T12:53:09;2.05;;;0.90;;
32216;SDS011;67098;51.140;4.088;2023-07-29T12:55:38;2.50;;;1.13;;
32216;SDS011;67098;51.140;4.088;2023-07-29T12:58:04;1.45;;;0.93;;
32216;SDS011;67098;51.140;4.088;2023-07-29T13:00:30;1.63;;;1.13;;
32216;SDS011;67098;51.140;4.088;2023-07-29T13:02:55;1.95;;;0.95;;
32216;SDS011;67098;51.140;4.088;2023-07-29T13:05:21;1.77;;;1.25;;
32216;SDS011;67098;51.140;4.088;2023-07-29T13:07:47;1.98;;;1.13;;
32216;SDS011;67098;51.140;4.088;2023-07-29T13:10:13;3.08;;;1.20;;
32216;SDS011;67098;51.140;4.088;2023-07-29T13:12:39;1.25;;;1.10;;
32216;SDS011;67098;51.140;4.088;2023-07-29T13:15:05;3.08;;;1.23;;
32216;SDS011;67098;51.140;4.088;2023-07-29T13:17:32;1.85;;;1.20;;
32216;SDS011;67098;51.140;4.088;2023-07-29T13:19:58;2.50;;;1.02;;
32216;SDS011;67098;51.140;4.088;2023-07-29T13:22:24;4.68;;;1.35;;
32216;SDS011;67098;51.140;4.088;2023-07-29T13:24:50;2.65;;;1.08;;
32216;SDS011;67098;51.140;4.088;2023-07-29T13:27:16;2.10;;;1.20;;
32216;SDS011;67098;51.140;4.088;2023-07-29T13:29:41;3.25;;;1.20;;
32216;SDS011;67098;51.140;4.088;2023-07-29T13:32:09;5.72;;;1.20;;
32216;SDS011;67098;51.140;4.088;2023-07-29T13:34:34;2.13;;;1.23;;
32216;SDS011;67098;51.140;4.088;2023-07-29T13:37:00;3.22;;;1.30;;
32216;SDS011;67098;51.140;4.088;2023-07-29T13:39:26;3.00;;;1.30;;
32216;SDS011;67098;51.140;4.088;2023-07-29T13:41:52;1.13;;;1.02;;
32216;SDS011;67098;51.140;4.088;2023-07-29T13:44:19;2.35;;;1.17;;
32216;SDS011;67098;51.140;4.088;2023-07-29T13:46:45;4.15;;;1.20;;
32216;SDS011;67098;51.140;4.088;2023-07-29T13:49:11;1.90;;;1.08;;
32216;SDS011;67098;51.140;4.088;2023-07-29T13:51:37;2.80;;;1.40;;
32216;SDS011;67098;51.140;4.088;2023-07-29T13:54:02;2.22;;;1.42;;
32216;SDS011;67098;51.140;4.088;2023-07-29T13:56:28;2.83;;;1.30;;
32216;SDS011;67098;51.140;4.088;2023-07-29T13:58:54;4.80;;;1.10;;
32216;SDS011;67098;51.140;4.088;2023-07-29T14:01:20;3.13;;;1.35;;
32216;SDS011;67098;51.140;4.088;2023-07-29T14:03:45;3.55;;;1.40;;
32216;SDS011;67098;51.140;4.088;2023-07-29T14:06:11;3.13;;;1.58;;
32216;SDS011;67098;51.140;4.088;2023-07-29T14:08:37;5.05;;;1.58;;
32216;SDS011;67098;51.140;4.088;2023-07-29T14:11:05;3.08;;;1.70;;
32216;SDS011;67098;51.140;4.088;2023-07-29T14:13:31;2.78;;;1.45;;
32216;SDS011;67098;51.140;4.088;2023-07-29T14:15:57;3.55;;;1.60;;
32216;SDS011;67098;51.140;4.088;2023-07-29T14:18:28;3.33;;;1.65;;
32216;SDS011;67098;51.140;4.088;2023-07-29T14:20:54;3.08;;;1.20;;
32216;SDS011;67098;51.140;4.088;2023-07-29T14:23:20;1.45;;;1.15;;
32216;SDS011;67098;51.140;4.088;2023-07-29T14:25:46;3.58;;;1.00;;
32216;SDS011;67098;51.140;4.088;2023-07-29T14:28:12;2.78;;;1.38;;
32216;SDS011;67098;51.140;4.088;2023-07-29T14:30:39;1.05;;;0.98;;
32216;SDS011;67098;51.140;4.088;2023-07-29T14:33:06;1.50;;;1.00;;
32216;SDS011;67098;51.140;4.088;2023-07-29T14:35:32;1.83;;;0.95;;
32216;SDS011;67098;51.140;4.088;2023-07-29T14:37:57;4.20;;;1.20;;
32216;SDS011;67098;51.140;4.088;2023-07-29T14:40:23;1.42;;;1.02;;
32216;SDS011;67098;51.140;4.088;2023-07-29T14:42:49;1.23;;;0.98;;
32216;SDS011;67098;51.140;4.088;2023-07-29T14:45:15;2.45;;;1.02;;
32216;SDS011;67098;51.140;4.088;2023-07-29T14:47:40;1.42;;;1.00;;
32216;SDS011;67098;51.140;4.088;2023-07-29T14:50:06;4.78;;;1.20;;
32216;SDS011;67098;51.140;4.088;2023-07-29T14:52:32;4.00;;;1.00;;
32216;SDS011;67098;51.140;4.088;2023-07-29T14:54:58;1.63;;;0.90;;
32216;SDS011;67098;51.140;4.088;2023-07-29T14:57:23;1.92;;;0.90;;
32216;SDS011;67098;51.140;4.088;2023-07-29T14:59:49;2.20;;;1.00;;
32216;SDS011;67098;51.140;4.088;2023-07-29T15:02:15;1.52;;;0.90;;